Yang Li Hu — BOGE — position and weather

sailwx.info

Track history (hours):
 
Tides and Currents Weather Stations Pressure Air Temp Water Temp Dewpoint Dewpoint Depression Visibility Wind Speed Wind Dir Waves Ship Positions

Yang Li Hu

Last reported at 2015-May-12 10:22 UTC. Time now 2015-May-25 07:35 UTC.
Position N 31°59' E 120°50'.
Warning: this ship's position is 12 days out of date.

Length 244 m; draft 9 m.

Type: Tanker. MMSI: 413975000.

Date/timePositionNaut miles runAvg speedWind from/ knotsBaromVisibWave heightAir tempDewpointWater temp
2015-May-12 10:22N 31°59' E 120°50'  
2015-May-08 00:26N 31°12' E 124°33'138 9.3
2015-May-07 09:29N 29°44' E 122°29'1010.3
2015-May-07 08:32N 29°46' E 122°18'8 8.4
2015-May-07 07:33N 29°53' E 122°13'0 0.1
2015-May-07 06:13N 29°53' E 122°13'0 0.2
2015-May-07 05:07N 29°53' E 122°13'0 0.0
2015-May-07 02:31N 29°53' E 122°13'0 0.1
2015-May-07 01:25N 29°53' E 122°13'2 2.2
2015-May-07 00:34N 29°51' E 122°11'9 8.5
2015-May-06 23:33N 29°47' E 122°03'0 0.1
2015-May-06 21:32N 29°46' E 122°03'0 0.1
2015-May-06 20:14N 29°46' E 122°03'0 0.2
2015-May-06 19:32N 29°46' E 122°03'0 0.1
2015-May-06 18:32N 29°47' E 122°03'0 0.0
2015-May-06 17:32N 29°47' E 122°03'0 0.0
2015-May-06 16:20N 29°47' E 122°03'0 0.0
2015-May-06 09:20N 29°47' E 122°03'0 0.1
2015-May-06 07:26N 29°47' E 122°03'0 0.0
2015-May-06 04:08N 29°47' E 122°03'0 0.0
2015-May-06 03:33N 29°47' E 122°03'2 1.3
2015-May-06 02:22N 29°47' E 122°05'0 0.1
2015-May-06 00:23N 29°47' E 122°05'0 0.0
2015-May-05 23:23N 29°47' E 122°05'0 0.0
2015-May-05 13:05N 29°47' E 122°05'0 0.0
2015-May-05 02:20N 29°47' E 122°05'0 0.0
2015-May-05 01:19N 29°47' E 122°05'0 0.0
2015-May-05 00:13N 29°47' E 122°05'0 0.0
2015-May-04 23:07N 29°47' E 122°05'0 0.0
2015-May-04 21:25N 29°47' E 122°05'0 0.0
2015-May-04 20:31N 29°47' E 122°05'0 0.0
2015-May-04 19:13N 29°47' E 122°05'0 0.0
2015-May-04 18:25N 29°47' E 122°05'0 0.0
2015-May-04 17:07N 29°47' E 122°05'0 0.0
2015-May-04 16:31N 29°47' E 122°05'0 0.0
2015-May-04 12:31N 29°47' E 122°05'0 0.0
2015-May-04 11:25N 29°47' E 122°05'0 0.0
2015-May-04 09:13N 29°47' E 122°05'0 0.0
2015-May-04 03:23N 29°47' E 122°05'0 0.0
2015-May-04 01:13N 29°47' E 122°05'0 0.0
2015-May-04 00:25N 29°47' E 122°05'0 0.0
2015-May-03 23:25N 29°47' E 122°05'0 0.0
2015-May-03 22:13N 29°47' E 122°05'0 0.0
2015-May-03 21:13N 29°47' E 122°05'0 0.0
2015-May-03 20:25N 29°47' E 122°05'0 0.0
2015-May-03 17:13N 29°47' E 122°05'0 0.0
2015-May-03 16:31N 29°47' E 122°05'0 0.0
2015-May-03 15:19N 29°47' E 122°05'0 0.0
2015-May-03 13:31N 29°47' E 122°05'0 0.0
2015-May-03 12:19N 29°47' E 122°05'0 0.0
2015-May-03 11:07N 29°47' E 122°05'0 0.0
2015-May-03 10:25N 29°47' E 122°05'0 0.0
2015-May-03 09:19N 29°47' E 122°05'0 0.0
2015-May-03 08:25N 29°47' E 122°05'0 0.0
2015-May-03 07:31N 29°47' E 122°05'0 0.0
2015-May-03 02:30N 29°47' E 122°05'0 0.0
2015-May-03 01:05N 29°47' E 122°05'14449.9
2015-May-02 22:11N 31°57' E 120°52'  
Track history (hours):
 
Tides and Currents Weather Stations Pressure Air Temp Water Temp Dewpoint Dewpoint Depression Visibility Wind Speed Wind Dir Waves Ship Positions

Yang Li Hu

Last reported at 2015-May-12 10:22 UTC. Time now 2015-May-25 07:35 UTC.
Position N 31°59' E 120°50'.
Warning: this ship's position is 12 days out of date.

Length 244 m; draft 9 m.

Type: Tanker. MMSI: 413975000.

Date/timePositionNaut miles runAvg speedWind from/ knotsBaromVisibWave heightAir tempDewpointWater temp
2015-May-12 10:22N 31°59' E 120°50'  
2015-May-08 00:26N 31°12' E 124°33'138 9.3
2015-May-07 09:29N 29°44' E 122°29'1010.3
2015-May-07 08:32N 29°46' E 122°18'8 8.4
2015-May-07 07:33N 29°53' E 122°13'0 0.1
2015-May-07 06:13N 29°53' E 122°13'0 0.2
2015-May-07 05:07N 29°53' E 122°13'0 0.0
2015-May-07 02:31N 29°53' E 122°13'0 0.1
2015-May-07 01:25N 29°53' E 122°13'2 2.2
2015-May-07 00:34N 29°51' E 122°11'9 8.5
2015-May-06 23:33N 29°47' E 122°03'0 0.1
2015-May-06 21:32N 29°46' E 122°03'0 0.1
2015-May-06 20:14N 29°46' E 122°03'0 0.2
2015-May-06 19:32N 29°46' E 122°03'0 0.1
2015-May-06 18:32N 29°47' E 122°03'0 0.0
2015-May-06 17:32N 29°47' E 122°03'0 0.0
2015-May-06 16:20N 29°47' E 122°03'0 0.0
2015-May-06 09:20N 29°47' E 122°03'0 0.1
2015-May-06 07:26N 29°47' E 122°03'0 0.0
2015-May-06 04:08N 29°47' E 122°03'0 0.0
2015-May-06 03:33N 29°47' E 122°03'2 1.3
2015-May-06 02:22N 29°47' E 122°05'0 0.1
2015-May-06 00:23N 29°47' E 122°05'0 0.0
2015-May-05 23:23N 29°47' E 122°05'0 0.0
2015-May-05 13:05N 29°47' E 122°05'0 0.0
2015-May-05 02:20N 29°47' E 122°05'0 0.0
2015-May-05 01:19N 29°47' E 122°05'0 0.0
2015-May-05 00:13N 29°47' E 122°05'0 0.0
2015-May-04 23:07N 29°47' E 122°05'0 0.0
2015-May-04 21:25N 29°47' E 122°05'0 0.0
2015-May-04 20:31N 29°47' E 122°05'0 0.0
2015-May-04 19:13N 29°47' E 122°05'0 0.0
2015-May-04 18:25N 29°47' E 122°05'0 0.0
2015-May-04 17:07N 29°47' E 122°05'0 0.0
2015-May-04 16:31N 29°47' E 122°05'0 0.0
2015-May-04 12:31N 29°47' E 122°05'0 0.0
2015-May-04 11:25N 29°47' E 122°05'0 0.0
2015-May-04 09:13N 29°47' E 122°05'0 0.0
2015-May-04 03:23N 29°47' E 122°05'0 0.0
2015-May-04 01:13N 29°47' E 122°05'0 0.0
2015-May-04 00:25N 29°47' E 122°05'0 0.0
2015-May-03 23:25N 29°47' E 122°05'0 0.0
2015-May-03 22:13N 29°47' E 122°05'0 0.0
2015-May-03 21:13N 29°47' E 122°05'0 0.0
2015-May-03 20:25N 29°47' E 122°05'0 0.0
2015-May-03 17:13N 29°47' E 122°05'0 0.0
2015-May-03 16:31N 29°47' E 122°05'0 0.0
2015-May-03 15:19N 29°47' E 122°05'0 0.0
2015-May-03 13:31N 29°47' E 122°05'0 0.0
2015-May-03 12:19N 29°47' E 122°05'0 0.0
2015-May-03 11:07N 29°47' E 122°05'0 0.0
2015-May-03 10:25N 29°47' E 122°05'0 0.0
2015-May-03 09:19N 29°47' E 122°05'0 0.0
2015-May-03 08:25N 29°47' E 122°05'0 0.0
2015-May-03 07:31N 29°47' E 122°05'0 0.0
2015-May-03 02:30N 29°47' E 122°05'0 0.0
2015-May-03 01:05N 29°47' E 122°05'14449.9
2015-May-02 22:11N 31°57' E 120°52'  

Dump ship's entire track history